Time;durP1;ratioP1;P1;durP2;ratioP2;P2;SDS_P1;SDS_P2;PMS_P1;PMS_P2;Temp;Humidity;BMP_temperature;BMP_pressure;BME280_temperature;BME280_humidity;BME280_pressure;Samples;Min_cycle;Max_cycle;Signal;HPM_P1;HPM_P2
2023/07/03 00:00:04;;;;;;;17.85;10.18;;;;;;;;;;5053498;28;20452;-68
2023/07/03 00:02:52;;;;;;;18.17;10.68;;;;;;;;;;5053365;28;20028;-68
2023/07/03 00:05:40;;;;;;;21.05;11.68;;;;;;;;;;5052801;28;20033;-66
2023/07/03 00:08:26;;;;;;;24.17;11.30;;;;;;;;;;5053315;28;20060;-67
2023/07/03 00:11:11;;;;;;;20.13;12.68;;;;;;;;;;5053588;28;20461;-67
2023/07/03 00:13:57;;;;;;;21.10;10.73;;;;;;;;;;5052509;28;20365;-67
2023/07/03 00:16:43;;;;;;;21.17;10.95;;;;;;;;;;5052701;28;20033;-68
2023/07/03 00:19:30;;;;;;;23.38;11.68;;;;;;;;;;5052937;28;20052;-67
2023/07/03 00:22:15;;;;;;;18.85;10.57;;;;;;;;;;5051074;28;20060;-65
2023/07/03 00:25:01;;;;;;;22.52;11.13;;;;;;;;;;5052362;28;20103;-67
2023/07/03 00:27:47;;;;;;;21.17;10.40;;;;;;;;;;5051992;28;20116;-66
2023/07/03 00:30:32;;;;;;;19.40;10.77;;;;;;;;;;5052776;28;20550;-65
2023/07/03 00:33:18;;;;;;;21.42;10.20;;;;;;;;;;5051990;28;20025;-65
2023/07/03 00:36:04;;;;;;;21.95;10.52;;;;;;;;;;5052096;28;20050;-65
2023/07/03 00:38:49;;;;;;;20.77;10.18;;;;;;;;;;5052451;28;20535;-71
2023/07/03 00:41:35;;;;;;;17.63;9.55;;;;;;;;;;5051681;28;20028;-66
2023/07/03 00:44:20;;;;;;;15.98;9.02;;;;;;;;;;5051426;28;20017;-66
2023/07/03 00:47:08;;;;;;;18.85;10.32;;;;;;;;;;5051704;28;20447;-66
2023/07/03 00:49:53;;;;;;;16.80;9.45;;;;;;;;;;5051597;28;20017;-66
2023/07/03 00:52:39;;;;;;;18.15;10.18;;;;;;;;;;5051397;28;20480;-66
2023/07/03 00:55:25;;;;;;;20.45;10.82;;;;;;;;;;5052547;28;20067;-65
2023/07/03 00:58:10;;;;;;;17.55;9.63;;;;;;;;;;5052282;28;20025;-64
2023/07/03 01:01:15;;;;;;;19.80;9.55;;;;;;;;;;5050903;28;20052;-64
2023/07/03 01:04:06;;;;;;;21.92;10.70;;;;;;;;;;5051497;28;20029;-65
2023/07/03 01:06:56;;;;;;;16.15;9.73;;;;;;;;;;5052059;28;20025;-63
2023/07/03 01:09:45;;;;;;;17.77;9.90;;;;;;;;;;5051660;28;20051;-64
2023/07/03 01:12:33;;;;;;;21.88;10.23;;;;;;;;;;5051966;28;20432;-64
2023/07/03 01:15:30;;;;;;;21.77;9.90;;;;;;;;;;5052280;28;20088;-64
2023/07/03 01:18:16;;;;;;;19.00;11.05;;;;;;;;;;5051727;28;20020;-71
2023/07/03 01:21:07;;;;;;;18.63;10.30;;;;;;;;;;5051960;28;20032;-71
2023/07/03 01:23:57;;;;;;;19.45;10.23;;;;;;;;;;5051897;28;20021;-71
2023/07/03 01:26:42;;;;;;;;;;;;;;;;;;5052791;28;20040;-70
2023/07/03 01:29:29;;;;;;;19.55;10.18;;;;;;;;;;5051947;28;19904;-71
2023/07/03 01:32:15;;;;;;;18.30;9.90;;;;;;;;;;5052279;28;20021;-66
2023/07/03 01:35:03;;;;;;;20.27;10.55;;;;;;;;;;5051049;28;20059;-67
2023/07/03 01:37:50;;;;;;;20.25;10.85;;;;;;;;;;5051880;28;20031;-68
2023/07/03 01:40:36;;;;;;;18.05;10.90;;;;;;;;;;5055849;28;20036;-68
2023/07/03 01:43:22;;;;;;;19.77;11.13;;;;;;;;;;5055582;28;20029;-68
2023/07/03 01:46:08;;;;;;;19.65;10.82;;;;;;;;;;5054667;28;20434;-68
2023/07/03 01:48:53;;;;;;;20.77;9.82;;;;;;;;;;5055369;28;20118;-67
2023/07/03 01:51:51;;;;;;;17.58;9.10;;;;;;;;;;5054204;28;20021;-67
2023/07/03 01:54:57;;;;;;;21.42;10.55;;;;;;;;;;5054640;28;20407;-66
2023/07/03 01:57:57;;;;;;;16.75;9.70;;;;;;;;;;5055050;28;20025;-67
2023/07/03 02:00:48;;;;;;;16.55;9.85;;;;;;;;;;5053848;28;20029;-67
2023/07/03 02:03:40;;;;;;;18.42;9.85;;;;;;;;;;5054691;28;20536;-66
2023/07/03 02:06:33;;;;;;;17.30;10.10;;;;;;;;;;5054039;28;20017;-66
2023/07/03 02:09:19;;;;;;;21.13;10.50;;;;;;;;;;5054949;28;20017;-64
2023/07/03 02:12:06;;;;;;;22.85;10.70;;;;;;;;;;5055391;28;20476;-66
2023/07/03 02:14:52;;;;;;;16.13;8.95;;;;;;;;;;5054413;28;20053;-66
2023/07/03 02:17:37;;;;;;;19.20;10.38;;;;;;;;;;5054054;28;20029;-66
2023/07/03 02:20:23;;;;;;;18.77;9.35;;;;;;;;;;5054877;28;20017;-66
2023/07/03 02:23:09;;;;;;;17.85;11.10;;;;;;;;;;5054466;28;20035;-66
2023/07/03 02:25:54;;;;;;;15.40;8.95;;;;;;;;;;5054545;28;20128;-67
2023/07/03 02:28:40;;;;;;;17.75;10.35;;;;;;;;;;5053461;28;20029;-65
2023/07/03 02:31:25;;;;;;;18.05;9.60;;;;;;;;;;5054870;28;20029;-68
2023/07/03 02:34:11;;;;;;;16.65;9.35;;;;;;;;;;5053130;28;20029;-68
2023/07/03 02:36:58;;;;;;;22.33;10.40;;;;;;;;;;5053636;28;20021;-68
2023/07/03 02:39:47;;;;;;;18.83;9.52;;;;;;;;;;5054398;28;20036;-68
2023/07/03 02:42:33;;;;;;;17.83;10.33;;;;;;;;;;5053645;28;20033;-67
2023/07/03 02:45:19;;;;;;;16.48;9.68;;;;;;;;;;5053912;28;20036;-66
2023/07/03 02:48:05;;;;;;;17.13;10.25;;;;;;;;;;5054037;28;20427;-66
2023/07/03 02:50:52;;;;;;;18.10;9.30;;;;;;;;;;5053274;28;20430;-64
2023/07/03 02:53:37;;;;;;;16.95;8.98;;;;;;;;;;5053257;28;20029;-64
2023/07/03 02:56:23;;;;;;;21.73;8.90;;;;;;;;;;5053189;28;20059;-63
2023/07/03 02:59:08;;;;;;;17.60;9.50;;;;;;;;;;5053171;28;20035;-64
2023/07/03 03:01:54;;;;;;;18.10;9.10;;;;;;;;;;5052605;28;20055;-63
2023/07/03 03:04:39;;;;;;;19.30;9.95;;;;;;;;;;5052862;28;20017;-64
2023/07/03 03:07:25;;;;;;;19.92;10.25;;;;;;;;;;5052730;28;20055;-65
2023/07/03 03:10:11;;;;;;;19.35;11.93;;;;;;;;;;5054131;28;20021;-66
2023/07/03 03:12:56;;;;;;;17.35;9.25;;;;;;;;;;5053146;28;20490;-66
2023/07/03 03:15:42;;;;;;;20.38;9.32;;;;;;;;;;5033864;28;20052;-66
2023/07/03 03:18:27;;;;;;;20.85;9.50;;;;;;;;;;5034492;28;20508;-66
2023/07/03 03:21:15;;;;;;;18.02;9.57;;;;;;;;;;5033805;28;20399;-65
2023/07/03 03:24:02;;;;;;;17.42;10.02;;;;;;;;;;5033688;28;20029;-67
2023/07/03 03:26:47;;;;;;;19.00;10.25;;;;;;;;;;5033329;28;20381;-66
2023/07/03 03:29:33;;;;;;;22.40;10.75;;;;;;;;;;5033180;28;20056;-65
2023/07/03 03:32:19;;;;;;;14.00;7.90;;;;;;;;;;5032780;28;20032;-65
2023/07/03 03:35:05;;;;;;;16.00;9.20;;;;;;;;;;5033403;28;20029;-66
2023/07/03 03:37:51;;;;;;;18.23;9.00;;;;;;;;;;5033779;28;20030;-66
2023/07/03 03:40:36;;;;;;;18.95;9.10;;;;;;;;;;5033501;28;20021;-66
2023/07/03 03:43:22;;;;;;;21.02;9.85;;;;;;;;;;5033263;28;20029;-67
2023/07/03 03:46:08;;;;;;;18.40;9.77;;;;;;;;;;5033257;28;20021;-65
2023/07/03 03:48:53;;;;;;;18.60;9.48;;;;;;;;;;5032996;28;20029;-64
2023/07/03 03:51:40;;;;;;;22.05;8.90;;;;;;;;;;5033297;28;20021;-65
2023/07/03 03:54:29;;;;;;;16.83;8.63;;;;;;;;;;5033400;28;20100;-65
2023/07/03 03:57:15;;;;;;;16.48;8.32;;;;;;;;;;5032895;28;20044;-64
2023/07/03 04:00:00;;;;;;;16.98;9.60;;;;;;;;;;5032975;28;20395;-66
2023/07/03 04:02:46;;;;;;;20.63;9.60;;;;;;;;;;5033106;28;20033;-70
2023/07/03 04:05:32;;;;;;;18.55;9.05;;;;;;;;;;5032963;28;20017;-71
2023/07/03 04:08:18;;;;;;;20.65;10.07;;;;;;;;;;5033220;28;20124;-71
2023/07/03 04:11:03;;;;;;;18.20;9.80;;;;;;;;;;5032343;28;20115;-70
2023/07/03 04:13:49;;;;;;;19.10;10.35;;;;;;;;;;5039315;28;20049;-70
2023/07/03 04:16:34;;;;;;;18.48;9.88;;;;;;;;;;5052166;28;20357;-70
2023/07/03 04:19:20;;;;;;;14.82;8.07;;;;;;;;;;5052980;28;20024;-71
2023/07/03 04:22:05;;;;;;;16.65;8.73;;;;;;;;;;5051779;28;20033;-69
2023/07/03 04:24:51;;;;;;;20.10;9.77;;;;;;;;;;5051374;28;20150;-67
2023/07/03 04:27:37;;;;;;;21.40;10.13;;;;;;;;;;5051907;28;20111;-70
2023/07/03 04:30:23;;;;;;;16.95;8.52;;;;;;;;;;5052911;28;20420;-67
2023/07/03 04:33:08;;;;;;;19.25;10.52;;;;;;;;;;5051943;28;20451;-68
2023/07/03 04:35:54;;;;;;;19.08;10.73;;;;;;;;;;5052720;28;20028;-69
2023/07/03 04:38:41;;;;;;;18.00;9.20;;;;;;;;;;5053206;28;20071;-71
2023/07/03 04:41:27;;;;;;;15.90;8.15;;;;;;;;;;5051428;28;20043;-70
2023/07/03 04:44:13;;;;;;;17.20;9.30;;;;;;;;;;5051088;28;20392;-69
2023/07/03 04:47:04;;;;;;;20.08;9.13;;;;;;;;;;5052577;28;20075;-70
2023/07/03 04:49:53;;;;;;;15.65;8.63;;;;;;;;;;5051147;28;20029;-72
2023/07/03 04:52:39;;;;;;;18.00;9.10;;;;;;;;;;5052127;28;20086;-71
2023/07/03 04:55:24;;;;;;;16.58;9.13;;;;;;;;;;5051320;28;20021;-67
2023/07/03 04:58:11;;;;;;;19.10;9.65;;;;;;;;;;5050867;28;20086;-72
2023/07/03 05:00:56;;;;;;;14.68;8.40;;;;;;;;;;5051436;28;20052;-71
2023/07/03 05:03:42;;;;;;;19.42;9.60;;;;;;;;;;5052177;28;20033;-69
2023/07/03 05:06:28;;;;;;;22.48;9.25;;;;;;;;;;5051086;28;20048;-71
2023/07/03 05:09:13;;;;;;;17.77;9.40;;;;;;;;;;5051960;28;20029;-71
2023/07/03 05:11:59;;;;;;;16.05;8.55;;;;;;;;;;5051886;28;20464;-71
2023/07/03 05:14:45;;;;;;;17.67;8.55;;;;;;;;;;5053532;28;20052;-66
2023/07/03 05:17:32;;;;;;;19.92;8.50;;;;;;;;;;5055192;28;20553;-66
2023/07/03 05:20:19;;;;;;;17.35;9.45;;;;;;;;;;5054695;28;20035;-66
2023/07/03 05:23:04;;;;;;;18.35;8.65;;;;;;;;;;5055664;28;20029;-64
2023/07/03 05:25:50;;;;;;;18.52;9.20;;;;;;;;;;5055231;28;20028;-64
2023/07/03 05:28:36;;;;;;;15.50;9.43;;;;;;;;;;5054878;28;20021;-64
2023/07/03 05:31:23;;;;;;;17.58;8.95;;;;;;;;;;5055062;28;20036;-67
2023/07/03 05:34:08;;;;;;;16.48;8.73;;;;;;;;;;5055569;28;20433;-67
2023/07/03 05:36:54;;;;;;;16.23;8.00;;;;;;;;;;5054494;28;20458;-67
2023/07/03 05:39:39;;;;;;;16.88;9.48;;;;;;;;;;5054705;28;20022;-67
2023/07/03 05:42:25;;;;;;;16.75;8.68;;;;;;;;;;5054461;28;20071;-67
2023/07/03 05:45:11;;;;;;;16.08;8.38;;;;;;;;;;5054445;28;20071;-67
2023/07/03 05:47:56;;;;;;;18.25;8.27;;;;;;;;;;5055339;28;20065;-67
2023/07/03 05:50:42;;;;;;;14.35;8.13;;;;;;;;;;5054555;28;20534;-67
2023/07/03 05:53:27;;;;;;;15.48;7.68;;;;;;;;;;5054392;28;20028;-70
2023/07/03 05:56:13;;;;;;;15.85;7.30;;;;;;;;;;5054303;28;20017;-70
2023/07/03 05:58:58;;;;;;;23.10;9.00;;;;;;;;;;5054667;28;20040;-71
2023/07/03 06:01:45;;;;;;;17.08;7.75;;;;;;;;;;5054253;28;20037;-70
2023/07/03 06:04:30;;;;;;;20.00;9.05;;;;;;;;;;5054966;28;20075;-70
2023/07/03 06:07:16;;;;;;;18.25;8.70;;;;;;;;;;5054188;28;20075;-70
2023/07/03 06:10:02;;;;;;;19.13;8.13;;;;;;;;;;5054125;28;20422;-65
2023/07/03 06:12:47;;;;;;;18.83;8.00;;;;;;;;;;5054910;28;20033;-64
2023/07/03 06:15:35;;;;;;;16.05;7.72;;;;;;;;;;5054164;28;20450;-64
2023/07/03 06:18:20;;;;;;;21.92;7.97;;;;;;;;;;5054119;28;20082;-65
2023/07/03 06:21:06;;;;;;;13.82;7.20;;;;;;;;;;5053564;28;20032;-64
2023/07/03 06:23:51;;;;;;;13.77;7.30;;;;;;;;;;5054439;28;20021;-65
2023/07/03 06:26:39;;;;;;;16.08;8.77;;;;;;;;;;5053331;28;20441;-68
2023/07/03 06:29:24;;;;;;;16.65;7.57;;;;;;;;;;5054647;28;20440;-69
2023/07/03 06:32:10;;;;;;;22.88;8.68;;;;;;;;;;5053825;28;20165;-72
2023/07/03 06:34:56;;;;;;;17.90;9.05;;;;;;;;;;5053780;28;20025;-70
2023/07/03 06:37:42;;;;;;;14.35;7.82;;;;;;;;;;5053748;28;20371;-70
2023/07/03 06:40:28;;;;;;;19.38;8.30;;;;;;;;;;5053933;28;20040;-69
2023/07/03 06:43:13;;;;;;;17.10;8.90;;;;;;;;;;5053577;28;20024;-70
2023/07/03 06:45:59;;;;;;;15.50;6.75;;;;;;;;;;5053905;28;20017;-65
2023/07/03 06:48:45;;;;;;;14.65;7.43;;;;;;;;;;5053997;28;20029;-62
2023/07/03 06:51:30;;;;;;;16.38;7.57;;;;;;;;;;5053546;28;20013;-64
2023/07/03 06:54:16;;;;;;;17.33;8.13;;;;;;;;;;5053953;28;20021;-64
2023/07/03 06:57:02;;;;;;;21.33;8.15;;;;;;;;;;5053486;28;20392;-64
2023/07/03 06:59:50;;;;;;;17.40;6.80;;;;;;;;;;5053598;28;20460;-64
2023/07/03 07:02:35;;;;;;;15.25;6.90;;;;;;;;;;5053383;28;20123;-63
2023/07/03 07:05:21;;;;;;;17.65;8.90;;;;;;;;;;5052931;28;20067;-66
2023/07/03 07:08:07;;;;;;;18.83;7.07;;;;;;;;;;5053430;28;20028;-68
2023/07/03 07:10:52;;;;;;;14.73;7.45;;;;;;;;;;5053555;28;20476;-68
2023/07/03 07:13:39;;;;;;;17.33;8.07;;;;;;;;;;5052510;28;20053;-68
2023/07/03 07:16:34;;;;;;;21.63;7.65;;;;;;;;;;5053701;28;20009;-68
2023/07/03 07:19:20;;;;;;;15.07;7.82;;;;;;;;;;5052237;28;20013;-68
2023/07/03 07:22:05;;;;;;;15.80;7.85;;;;;;;;;;5052747;28;20503;-68
2023/07/03 07:24:51;;;;;;;17.33;8.30;;;;;;;;;;5052889;28;20045;-71
2023/07/03 07:27:36;;;;;;;15.80;8.02;;;;;;;;;;5052769;28;20102;-71
2023/07/03 07:30:22;;;;;;;20.67;8.15;;;;;;;;;;5052749;28;20349;-71
2023/07/03 07:33:08;;;;;;;16.88;8.18;;;;;;;;;;5052303;28;20017;-71
2023/07/03 07:35:53;;;;;;;16.73;8.55;;;;;;;;;;5053034;28;20025;-71
2023/07/03 07:38:39;;;;;;;17.73;8.30;;;;;;;;;;5052126;28;20044;-71
2023/07/03 07:41:24;;;;;;;15.90;7.68;;;;;;;;;;5052457;28;20112;-67
2023/07/03 07:44:10;;;;;;;17.45;7.53;;;;;;;;;;5053046;28;20031;-69
2023/07/03 07:46:56;;;;;;;16.73;7.90;;;;;;;;;;5052528;28;20021;-68
2023/07/03 07:49:42;;;;;;;15.13;7.38;;;;;;;;;;5052010;28;20028;-68
2023/07/03 07:52:28;;;;;;;17.80;8.02;;;;;;;;;;5052913;28;20031;-68
2023/07/03 07:55:13;;;;;;;19.60;7.65;;;;;;;;;;5053038;28;20361;-68
2023/07/03 07:57:59;;;;;;;14.82;7.10;;;;;;;;;;5051725;28;20059;-68
2023/07/03 08:00:49;;;;;;;16.27;8.02;;;;;;;;;;5052369;28;20456;-65
2023/07/03 08:03:38;;;;;;;18.40;8.85;;;;;;;;;;5052495;28;20032;-67
2023/07/03 08:06:23;;;;;;;16.55;7.78;;;;;;;;;;5052092;28;20430;-67
2023/07/03 08:09:09;;;;;;;17.13;7.63;;;;;;;;;;5051994;28;20029;-68
2023/07/03 08:11:54;;;;;;;16.15;7.85;;;;;;;;;;5052186;28;20021;-66
2023/07/03 08:14:40;;;;;;;16.15;7.82;;;;;;;;;;5051465;28;20496;-67
2023/07/03 08:17:25;;;;;;;15.68;7.53;;;;;;;;;;5052184;28;20024;-68
2023/07/03 08:20:11;;;;;;;15.63;7.40;;;;;;;;;;5051938;28;20112;-62
2023/07/03 08:22:57;;;;;;;17.92;7.28;;;;;;;;;;5051718;28;20110;-64
2023/07/03 08:25:43;;;;;;;22.17;7.97;;;;;;;;;;5052010;28;20100;-65
2023/07/03 08:28:29;;;;;;;17.38;7.28;;;;;;;;;;5052388;28;20052;-65
2023/07/03 08:31:14;;;;;;;17.38;7.05;;;;;;;;;;5051860;28;20025;-64
2023/07/03 08:34:00;;;;;;;17.95;7.50;;;;;;;;;;5052891;28;20112;-65
2023/07/03 08:36:45;;;;;;;15.45;7.63;;;;;;;;;;5051893;28;20025;-69
2023/07/03 08:39:31;;;;;;;16.73;7.97;;;;;;;;;;5051599;28;20464;-71
2023/07/03 08:42:20;;;;;;;16.70;8.35;;;;;;;;;;5051731;28;20071;-71
2023/07/03 08:45:07;;;;;;;14.80;7.07;;;;;;;;;;5052071;28;20407;-71
2023/07/03 08:47:53;;;;;;;17.95;7.50;;;;;;;;;;5051753;28;20025;-71
2023/07/03 08:50:43;;;;;;;16.83;8.48;;;;;;;;;;5055277;28;20059;-71
2023/07/03 08:53:32;;;;;;;14.55;7.50;;;;;;;;;;5056407;28;20363;-71
2023/07/03 08:56:22;;;;;;;16.30;7.82;;;;;;;;;;5055521;28;20112;-66
2023/07/03 08:59:08;;;;;;;15.48;8.13;;;;;;;;;;5056275;28;20536;-64
2023/07/03 09:02:00;;;;;;;13.82;7.88;;;;;;;;;;5056141;28;20032;-64
2023/07/03 09:05:04;;;;;;;17.25;7.25;;;;;;;;;;5055151;28;20017;-64
2023/07/03 09:07:56;;;;;;;17.02;8.00;;;;;;;;;;5055659;28;20029;-64
2023/07/03 09:10:46;;;;;;;16.38;7.78;;;;;;;;;;5055250;28;20020;-64
2023/07/03 09:13:37;;;;;;;18.23;7.60;;;;;;;;;;5055745;28;20072;-66
2023/07/03 09:16:23;;;;;;;13.57;6.75;;;;;;;;;;5055039;28;20017;-66
2023/07/03 09:19:15;;;;;;;15.23;7.88;;;;;;;;;;5055166;28;20025;-66
2023/07/03 09:22:02;;;;;;;17.35;7.72;;;;;;;;;;5055403;28;20495;-65
2023/07/03 09:24:49;;;;;;;17.08;7.72;;;;;;;;;;5055891;28;20104;-65
2023/07/03 09:27:35;;;;;;;20.58;8.75;;;;;;;;;;5055566;28;20104;-64
2023/07/03 09:30:21;;;;;;;15.73;8.07;;;;;;;;;;5054971;28;20021;-69
2023/07/03 09:33:06;;;;;;;16.33;7.38;;;;;;;;;;5055206;28;20017;-66
2023/07/03 09:35:52;;;;;;;19.58;7.32;;;;;;;;;;5054737;28;20464;-67
2023/07/03 09:38:37;;;;;;;19.17;7.20;;;;;;;;;;5055072;28;20468;-67
2023/07/03 09:41:30;;;;;;;16.58;7.78;;;;;;;;;;5054577;28;20071;-68
2023/07/03 09:44:17;;;;;;;19.20;7.40;;;;;;;;;;5054871;28;20021;-66
2023/07/03 09:47:02;;;;;;;16.23;6.47;;;;;;;;;;5054854;28;20028;-67
2023/07/03 09:49:48;;;;;;;15.75;6.80;;;;;;;;;;5054609;28;20032;-68
2023/07/03 09:52:43;;;;;;;14.60;6.15;;;;;;;;;;5055209;28;20488;-65
2023/07/03 09:55:29;;;;;;;19.60;7.68;;;;;;;;;;5054844;28;20483;-65
2023/07/03 09:58:16;;;;;;;12.57;7.00;;;;;;;;;;5054402;28;20100;-65
2023/07/03 10:01:04;;;;;;;17.02;7.47;;;;;;;;;;5053741;28;20025;-65
2023/07/03 10:04:09;;;;;;;13.60;6.13;;;;;;;;;;5054270;28;20064;-66
2023/07/03 10:06:59;;;;;;;16.33;6.45;;;;;;;;;;5054685;28;20032;-65
2023/07/03 10:09:46;;;;;;;12.90;5.80;;;;;;;;;;5054143;28;20025;-65
2023/07/03 10:12:34;;;;;;;12.65;5.95;;;;;;;;;;5054667;28;20398;-65
2023/07/03 10:15:24;;;;;;;14.15;6.25;;;;;;;;;;5053364;28;20110;-65
2023/07/03 10:18:21;;;;;;;13.70;5.93;;;;;;;;;;5054568;28;20096;-66
2023/07/03 10:21:10;;;;;;;13.95;6.00;;;;;;;;;;5053959;28;20021;-64
2023/07/03 10:23:57;;;;;;;20.20;5.45;;;;;;;;;;5053914;28;20104;-64
2023/07/03 10:26:51;;;;;;;17.75;6.63;;;;;;;;;;5054258;28;20115;-70
2023/07/03 10:29:41;;;;;;;11.10;5.53;;;;;;;;;;5053488;28;20183;-69
2023/07/03 10:32:30;;;;;;;17.33;5.75;;;;;;;;;;5053787;28;20060;-67
2023/07/03 10:35:24;;;;;;;14.37;5.53;;;;;;;;;;5053897;28;20025;-67
2023/07/03 10:38:31;;;;;;;14.02;4.78;;;;;;;;;;5053767;28;20020;-69
2023/07/03 10:41:20;;;;;;;12.00;4.80;;;;;;;;;;5054098;28;20025;-67
2023/07/03 10:44:11;;;;;;;11.50;4.50;;;;;;;;;;5053786;28;20380;-66
2023/07/03 10:46:58;;;;;;;9.63;4.18;;;;;;;;;;5053530;28;20071;-67
2023/07/03 10:49:44;;;;;;;9.43;4.38;;;;;;;;;;5053588;28;20033;-67
2023/07/03 10:52:36;;;;;;;7.82;4.45;;;;;;;;;;5053807;28;20390;-65
2023/07/03 10:55:42;;;;;;;10.40;3.67;;;;;;;;;;5053612;28;20521;-65
2023/07/03 10:58:38;;;;;;;7.78;3.40;;;;;;;;;;5054535;28;20025;-66
2023/07/03 11:01:28;;;;;;;10.57;3.70;;;;;;;;;;5052782;28;20116;-66
2023/07/03 11:04:46;;;;;;;11.63;4.07;;;;;;;;;;5053728;28;20020;-66
2023/07/03 11:07:47;;;;;;;8.10;3.92;;;;;;;;;;5011421;28;20025;-65
2023/07/03 11:10:37;;;;;;;10.38;3.17;;;;;;;;;;5053227;28;20131;-66
2023/07/03 11:13:49;;;;;;;11.52;3.42;;;;;;;;;;5051818;28;20051;-66
2023/07/03 11:16:54;;;;;;;10.43;3.80;;;;;;;;;;5053664;28;20464;-64
2023/07/03 11:19:47;;;;;;;10.23;3.35;;;;;;;;;;5054213;28;20060;-66
2023/07/03 11:22:39;;;;;;;9.98;3.80;;;;;;;;;;5052596;28;20472;-67
2023/07/03 11:25:32;;;;;;;9.68;4.20;;;;;;;;;;5053675;28;20025;-68
2023/07/03 11:28:32;;;;;;;8.30;3.53;;;;;;;;;;5053696;28;20021;-68
2023/07/03 11:31:18;;;;;;;8.35;3.95;;;;;;;;;;5053092;28;20025;-68
2023/07/03 11:34:04;;;;;;;9.38;4.28;;;;;;;;;;5053082;28;20361;-68
2023/07/03 11:36:54;;;;;;;9.38;4.07;;;;;;;;;;5053044;28;20032;-68
2023/07/03 11:39:49;;;;;;;13.95;4.68;;;;;;;;;;5052327;28;20079;-65
2023/07/03 11:42:37;;;;;;;10.35;4.00;;;;;;;;;;5052694;28;20040;-66
2023/07/03 11:45:26;;;;;;;8.43;3.97;;;;;;;;;;5052467;28;20028;-66
2023/07/03 11:48:38;;;;;;;11.68;4.35;;;;;;;;;;5052352;28;20021;-65
2023/07/03 11:51:31;;;;;;;15.07;4.43;;;;;;;;;;5053363;28;20021;-65
2023/07/03 11:54:19;;;;;;;9.93;4.15;;;;;;;;;;5052954;28;20021;-65
2023/07/03 11:57:06;;;;;;;11.70;4.35;;;;;;;;;;5052709;28;20483;-65
2023/07/03 11:59:52;;;;;;;10.23;5.03;;;;;;;;;;5052181;28;20440;-68
2023/07/03 12:02:57;;;;;;;10.95;4.25;;;;;;;;;;5052817;28;20036;-66
2023/07/03 12:05:42;;;;;;;9.48;4.50;;;;;;;;;;5052100;28;20021;-67
2023/07/03 12:08:38;;;;;;;8.60;3.80;;;;;;;;;;5052659;28;20028;-66
2023/07/03 12:11:26;;;;;;;11.20;4.78;;;;;;;;;;5051888;28;20048;-66
2023/07/03 12:14:32;;;;;;;9.60;4.63;;;;;;;;;;5052253;28;20049;-66
2023/07/03 12:17:23;;;;;;;10.60;4.85;;;;;;;;;;5052855;28;20027;-64
2023/07/03 12:20:10;;;;;;;15.65;5.00;;;;;;;;;;5052179;28;20060;-64
2023/07/03 12:22:55;;;;;;;11.68;4.80;;;;;;;;;;5051500;28;20097;-64
2023/07/03 12:25:41;;;;;;;12.10;4.90;;;;;;;;;;5051992;28;20570;-64
2023/07/03 12:28:26;;;;;;;10.90;4.47;;;;;;;;;;5051420;28;20027;-67
2023/07/03 12:31:14;;;;;;;12.20;4.47;;;;;;;;;;5052079;28;20029;-65
2023/07/03 12:34:00;;;;;;;12.07;4.63;;;;;;;;;;5051850;28;20027;-65
2023/07/03 12:36:45;;;;;;;12.23;4.35;;;;;;;;;;5051662;28;20032;-66
2023/07/03 12:39:31;;;;;;;12.60;5.10;;;;;;;;;;5051592;28;20025;-67
2023/07/03 12:42:28;;;;;;;11.75;4.15;;;;;;;;;;5052251;28;20035;-68
2023/07/03 12:45:21;;;;;;;10.73;4.82;;;;;;;;;;5051698;28;20025;-68
2023/07/03 12:48:10;;;;;;;10.45;4.60;;;;;;;;;;5051155;28;20025;-68
2023/07/03 12:50:57;;;;;;;8.30;3.58;;;;;;;;;;5052586;28;20112;-68
2023/07/03 12:53:43;;;;;;;10.00;4.30;;;;;;;;;;5052452;28;20025;-71
2023/07/03 12:56:29;;;;;;;8.77;3.80;;;;;;;;;;5052131;28;20118;-66
2023/07/03 12:59:16;;;;;;;8.55;4.13;;;;;;;;;;5051115;28;20032;-66
2023/07/03 13:02:02;;;;;;;9.52;4.20;;;;;;;;;;5051639;28;20029;-66
2023/07/03 13:05:14;;;;;;;10.20;4.13;;;;;;;;;;5051180;28;20021;-67
2023/07/03 13:08:00;;;;;;;6.72;3.85;;;;;;;;;;5051750;28;20017;-66
2023/07/03 13:10:59;;;;;;;9.10;3.92;;;;;;;;;;5052108;28;20456;-65
2023/07/03 13:13:45;;;;;;;9.77;3.65;;;;;;;;;;5051144;28;20071;-68
2023/07/03 13:16:30;;;;;;;8.35;3.45;;;;;;;;;;5051042;28;20021;-66
2023/07/03 13:19:35;;;;;;;7.78;3.60;;;;;;;;;;5050996;28;20555;-67
2023/07/03 13:22:20;;;;;;;8.75;3.40;;;;;;;;;;5051354;28;20036;-66
2023/07/03 13:25:07;;;;;;;8.48;3.50;;;;;;;;;;5051898;28;20403;-65
2023/07/03 13:27:52;;;;;;;7.57;2.92;;;;;;;;;;5051873;28;20063;-66
2023/07/03 13:30:39;;;;;;;7.22;3.38;;;;;;;;;;5051499;28;20017;-68
2023/07/03 13:33:25;;;;;;;8.60;2.83;;;;;;;;;;5051198;28;20143;-66
2023/07/03 13:36:25;;;;;;;5.90;2.38;;;;;;;;;;5053561;28;20025;-67
2023/07/03 13:39:25;;;;;;;7.68;3.08;;;;;;;;;;5055926;28;20523;-67
2023/07/03 13:42:10;;;;;;;6.55;2.78;;;;;;;;;;5054905;28;20037;-68
2023/07/03 13:44:56;;;;;;;5.75;2.60;;;;;;;;;;5054694;28;20025;-66
2023/07/03 13:47:41;;;;;;;3.88;2.53;;;;;;;;;;5054930;28;20020;-68
2023/07/03 13:50:28;;;;;;;6.38;2.33;;;;;;;;;;5054504;28;20020;-71
2023/07/03 13:53:13;;;;;;;4.80;2.13;;;;;;;;;;5055141;28;20017;-67
2023/07/03 13:55:59;;;;;;;5.18;2.05;;;;;;;;;;5055146;28;20048;-67
2023/07/03 13:58:45;;;;;;;4.50;1.92;;;;;;;;;;5054627;28;20032;-67
2023/07/03 14:01:31;;;;;;;6.03;2.50;;;;;;;;;;5055252;28;20025;-68
2023/07/03 14:04:17;;;;;;;4.70;2.30;;;;;;;;;;5054937;28;20434;-68
2023/07/03 14:07:02;;;;;;;5.32;2.22;;;;;;;;;;5054228;28;20143;-69
2023/07/03 14:09:48;;;;;;;4.82;2.10;;;;;;;;;;5054440;28;20023;-68
2023/07/03 14:12:33;;;;;;;4.95;2.30;;;;;;;;;;5054086;28;20480;-68
2023/07/03 14:15:23;;;;;;;5.18;2.20;;;;;;;;;;5053617;28;20059;-69
2023/07/03 14:18:08;;;;;;;4.70;2.17;;;;;;;;;;5055268;28;20062;-68
2023/07/03 14:20:54;;;;;;;3.15;1.92;;;;;;;;;;5054203;28;20025;-68
2023/07/03 14:23:44;;;;;;;3.35;1.83;;;;;;;;;;5053887;28;20071;-68
2023/07/03 14:26:29;;;;;;;4.90;1.80;;;;;;;;;;5054748;28;20017;-69
2023/07/03 14:29:15;;;;;;;5.85;2.13;;;;;;;;;;5054017;28;20044;-67
2023/07/03 14:32:00;;;;;;;4.85;2.15;;;;;;;;;;5053889;28;20017;-67
2023/07/03 14:34:46;;;;;;;4.97;1.77;;;;;;;;;;5053910;28;20091;-67
2023/07/03 14:37:32;;;;;;;2.53;1.42;;;;;;;;;;5053668;28;20021;-67
2023/07/03 14:40:18;;;;;;;5.65;1.70;;;;;;;;;;5054165;28;20391;-69
2023/07/03 14:43:05;;;;;;;3.88;2.05;;;;;;;;;;5053567;28;20060;-67
2023/07/03 14:45:50;;;;;;;3.35;1.80;;;;;;;;;;5054233;28;20035;-71
2023/07/03 14:48:36;;;;;;;3.58;1.80;;;;;;;;;;5053745;28;20025;-67
2023/07/03 14:51:22;;;;;;;5.93;2.80;;;;;;;;;;5053160;28;20399;-68
2023/07/03 14:54:07;;;;;;;4.78;1.73;;;;;;;;;;5053604;28;20059;-68
2023/07/03 14:56:53;;;;;;;3.25;1.73;;;;;;;;;;5053488;28;20135;-68
2023/07/03 14:59:38;;;;;;;6.05;2.30;;;;;;;;;;5053937;28;20483;-68
2023/07/03 15:02:24;;;;;;;4.13;1.75;;;;;;;;;;5053516;28;20468;-64
2023/07/03 15:05:10;;;;;;;5.55;2.17;;;;;;;;;;5053617;28;20020;-68
2023/07/03 15:07:55;;;;;;;4.25;1.60;;;;;;;;;;5054590;28;20029;-68
2023/07/03 15:10:41;;;;;;;2.58;1.20;;;;;;;;;;5052929;28;20031;-68
2023/07/03 15:13:26;;;;;;;1.83;1.40;;;;;;;;;;5053317;28;20045;-68
2023/07/03 15:16:12;;;;;;;2.22;1.50;;;;;;;;;;5053141;28;20021;-68
2023/07/03 15:19:06;;;;;;;5.05;1.35;;;;;;;;;;5052957;28;20033;-68
2023/07/03 15:21:52;;;;;;;2.13;1.10;;;;;;;;;;5053156;28;20037;-69
2023/07/03 15:24:38;;;;;;;3.88;1.48;;;;;;;;;;5053491;28;20021;-68
2023/07/03 15:27:23;;;;;;;1.65;1.23;;;;;;;;;;5052824;28;20025;-69
2023/07/03 15:30:09;;;;;;;2.65;1.05;;;;;;;;;;5052908;28;20139;-69
2023/07/03 15:32:55;;;;;;;5.13;1.65;;;;;;;;;;5053422;28;20122;-69
2023/07/03 15:35:40;;;;;;;2.28;1.10;;;;;;;;;;5052953;28;20516;-68
2023/07/03 15:38:26;;;;;;;1.98;1.30;;;;;;;;;;5052720;28;20112;-67
2023/07/03 15:41:12;;;;;;;2.75;1.23;;;;;;;;;;5052734;28;20415;-69
2023/07/03 15:44:01;;;;;;;1.88;1.13;;;;;;;;;;5053150;28;20032;-65
2023/07/03 15:46:48;;;;;;;1.88;1.02;;;;;;;;;;5053775;28;20076;-66
2023/07/03 15:49:37;;;;;;;3.92;1.35;;;;;;;;;;5052975;28;20027;-66
2023/07/03 15:52:23;;;;;;;3.25;1.20;;;;;;;;;;5053026;28;20158;-65
2023/07/03 15:55:09;;;;;;;1.60;0.93;;;;;;;;;;5052696;28;20033;-65
2023/07/03 15:57:54;;;;;;;3.03;0.90;;;;;;;;;;5052027;28;20017;-67
2023/07/03 16:00:40;;;;;;;3.13;1.20;;;;;;;;;;5052267;28;20083;-66
2023/07/03 16:03:25;;;;;;;3.85;1.10;;;;;;;;;;5052058;28;20078;-66
2023/07/03 16:06:13;;;;;;;1.67;0.88;;;;;;;;;;5052839;28;20127;-65
2023/07/03 16:08:59;;;;;;;4.30;1.60;;;;;;;;;;5052684;28;20468;-66
2023/07/03 16:11:44;;;;;;;2.92;1.40;;;;;;;;;;5052078;28;20021;-66
2023/07/03 16:14:30;;;;;;;3.92;1.15;;;;;;;;;;5052113;28;20412;-65
2023/07/03 16:17:15;;;;;;;1.60;0.93;;;;;;;;;;5052007;28;20120;-64
2023/07/03 16:20:02;;;;;;;2.65;1.00;;;;;;;;;;5052173;28;20549;-72
2023/07/03 16:22:48;;;;;;;2.67;1.00;;;;;;;;;;5051901;28;20036;-71
2023/07/03 16:25:33;;;;;;;1.67;1.20;;;;;;;;;;5051841;28;20028;-72
2023/07/03 16:28:19;;;;;;;1.85;1.20;;;;;;;;;;5051989;28;20498;-72
2023/07/03 16:31:04;;;;;;;1.42;0.82;;;;;;;;;;5051516;28;20048;-71